Time;durP1;ratioP1;P1;durP2;ratioP2;P2;SDS_P1;SDS_P2;PMS_P1;PMS_P2;Temp;Humidity;BMP_temperature;BMP_pressure;BME280_temperature;BME280_humidity;BME280_pressure;Samples;Min_cycle;Max_cycle;Signal;HPM_P1;HPM_P2
2023/06/02 00:01:24;;;;;;;8.82;3.83;;;;;;;;;;5005641;28;20088;-76
2023/06/02 00:03:53;;;;;;;12.27;4.10;;;;;;;;;;5009988;28;20402;-76
2023/06/02 00:06:19;;;;;;;11.00;3.70;;;;;;;;;;5003436;28;20063;-76
2023/06/02 00:08:45;;;;;;;12.55;3.75;;;;;;;;;;5018079;28;20054;-76
2023/06/02 00:11:12;;;;;;;12.57;4.10;;;;;;;;;;5008120;28;20512;-76
2023/06/02 00:13:38;;;;;;;9.00;3.58;;;;;;;;;;5010694;28;20049;-76
2023/06/02 00:16:06;;;;;;;8.98;3.30;;;;;;;;;;5003622;28;20046;-76
2023/06/02 00:18:33;;;;;;;12.13;4.00;;;;;;;;;;5008809;28;20085;-76
2023/06/02 00:21:00;;;;;;;9.93;3.83;;;;;;;;;;5011388;28;20046;-77
2023/06/02 00:23:28;;;;;;;11.77;3.50;;;;;;;;;;4999885;28;20078;-76
2023/06/02 00:25:55;;;;;;;11.13;3.92;;;;;;;;;;5007245;28;20049;-76
2023/06/02 00:28:21;;;;;;;11.10;3.28;;;;;;;;;;5010722;28;20165;-76
2023/06/02 00:30:47;;;;;;;9.55;3.70;;;;;;;;;;5009693;28;20053;-76
2023/06/02 00:33:14;;;;;;;9.88;3.05;;;;;;;;;;5001666;28;20053;-76
2023/06/02 00:35:40;;;;;;;11.75;3.25;;;;;;;;;;5003990;28;20054;-76
2023/06/02 00:38:06;;;;;;;11.05;3.75;;;;;;;;;;5009117;28;20108;-76
2023/06/02 00:40:32;;;;;;;12.98;3.97;;;;;;;;;;5011897;28;20046;-77
2023/06/02 00:43:02;;;;;;;9.82;3.45;;;;;;;;;;5013603;28;20077;-77
2023/06/02 00:45:28;;;;;;;12.63;3.60;;;;;;;;;;5013274;28;20038;-76
2023/06/02 00:47:55;;;;;;;15.80;3.92;;;;;;;;;;5012188;28;20041;-77
2023/06/02 00:50:21;;;;;;;18.98;4.28;;;;;;;;;;4999441;28;20065;-76
2023/06/02 00:52:50;;;;;;;10.82;3.67;;;;;;;;;;5011236;28;20038;-76
2023/06/02 00:55:16;;;;;;;9.60;3.40;;;;;;;;;;5010058;28;20056;-76
2023/06/02 00:57:42;;;;;;;9.13;3.30;;;;;;;;;;5005799;28;20054;-77
2023/06/02 01:00:12;;;;;;;10.93;3.60;;;;;;;;;;4999862;28;20497;-76
2023/06/02 01:02:38;;;;;;;10.63;3.67;;;;;;;;;;5023640;28;20441;-76
2023/06/02 01:05:10;;;;;;;13.13;4.35;;;;;;;;;;5024881;28;20100;-77
2023/06/02 01:07:39;;;;;;;14.93;3.93;;;;;;;;;;5009858;28;20054;-77
2023/06/02 01:10:05;;;;;;;11.40;3.85;;;;;;;;;;5006023;28;21084;-76
2023/06/02 01:12:32;;;;;;;15.52;4.03;;;;;;;;;;5004971;28;20034;-77
2023/06/02 01:14:58;;;;;;;14.00;4.00;;;;;;;;;;5008667;28;20039;-77
2023/06/02 01:17:30;;;;;;;9.05;3.72;;;;;;;;;;5007369;28;20034;-77
2023/06/02 01:20:01;;;;;;;11.20;4.10;;;;;;;;;;5010403;28;20529;-77
2023/06/02 01:22:29;;;;;;;15.07;4.40;;;;;;;;;;5010842;28;20084;-77
2023/06/02 01:24:58;;;;;;;13.50;3.90;;;;;;;;;;5004928;28;20074;-77
2023/06/02 01:27:24;;;;;;;8.95;4.05;;;;;;;;;;5007394;28;20060;-76
2023/06/02 01:29:51;;;;;;;12.38;3.58;;;;;;;;;;5009844;28;20058;-77
2023/06/02 01:32:17;;;;;;;11.65;4.00;;;;;;;;;;5001548;28;20052;-77
2023/06/02 01:35:03;;;;;;;11.45;3.42;;;;;;;;;;5012730;28;20045;-77
2023/06/02 01:37:31;;;;;;;13.32;3.33;;;;;;;;;;5004462;28;20054;-77
2023/06/02 01:39:58;;;;;;;10.68;3.60;;;;;;;;;;5010750;28;20517;-76
2023/06/02 01:42:24;;;;;;;13.23;3.90;;;;;;;;;;4999524;28;20529;-77
2023/06/02 01:44:51;;;;;;;14.68;4.13;;;;;;;;;;5013374;28;20057;-77
2023/06/02 01:47:17;;;;;;;10.13;3.50;;;;;;;;;;5009498;28;20126;-77
2023/06/02 01:49:43;;;;;;;10.30;3.15;;;;;;;;;;5010598;28;20046;-77
2023/06/02 01:52:10;;;;;;;10.65;3.80;;;;;;;;;;5010625;28;20112;-77
2023/06/02 01:54:36;;;;;;;14.35;4.20;;;;;;;;;;5010565;28;20061;-77
2023/06/02 01:57:02;;;;;;;11.30;4.50;;;;;;;;;;5009780;28;20049;-76
2023/06/02 01:59:28;;;;;;;11.90;3.40;;;;;;;;;;5003968;28;20516;-77
2023/06/02 02:01:54;;;;;;;13.30;3.80;;;;;;;;;;5010981;28;20041;-77
2023/06/02 02:04:20;;;;;;;13.25;3.63;;;;;;;;;;5007772;28;20453;-76
2023/06/02 02:06:49;;;;;;;11.80;3.60;;;;;;;;;;5008997;28;20121;-77
2023/06/02 02:09:15;;;;;;;11.38;3.47;;;;;;;;;;5004392;28;20093;-76
2023/06/02 02:11:41;;;;;;;12.30;3.80;;;;;;;;;;5011540;28;20037;-76
2023/06/02 02:14:08;;;;;;;12.70;3.85;;;;;;;;;;5004733;28;20490;-76
2023/06/02 02:16:35;;;;;;;10.35;3.55;;;;;;;;;;5009696;28;20049;-76
2023/06/02 02:19:02;;;;;;;11.18;3.58;;;;;;;;;;5002215;28;20046;-77
2023/06/02 02:21:28;;;;;;;9.68;3.45;;;;;;;;;;5011254;28;20050;-76
2023/06/02 02:23:54;;;;;;;13.00;3.83;;;;;;;;;;4999620;28;20505;-76
2023/06/02 02:26:21;;;;;;;10.13;4.18;;;;;;;;;;5001402;28;20105;-77
2023/06/02 02:28:47;;;;;;;12.75;3.65;;;;;;;;;;5001704;28;20042;-76
2023/06/02 02:31:13;;;;;;;11.85;3.33;;;;;;;;;;5002634;28;20053;-76
2023/06/02 02:33:39;;;;;;;13.25;3.65;;;;;;;;;;5004295;28;20363;-76
2023/06/02 02:36:06;;;;;;;12.15;3.80;;;;;;;;;;5001253;28;20042;-75
2023/06/02 02:38:32;;;;;;;13.45;4.45;;;;;;;;;;5002824;28;20569;-76
2023/06/02 02:40:58;;;;;;;12.30;3.80;;;;;;;;;;5001873;28;20132;-76
2023/06/02 02:43:24;;;;;;;7.68;3.80;;;;;;;;;;5003108;28;20042;-76
2023/06/02 02:45:50;;;;;;;13.48;3.88;;;;;;;;;;5004774;28;20046;-76
2023/06/02 02:48:16;;;;;;;12.30;4.28;;;;;;;;;;5002387;28;20516;-76
2023/06/02 02:50:42;;;;;;;13.23;3.50;;;;;;;;;;5002987;28;20042;-76
2023/06/02 02:53:08;;;;;;;10.77;3.97;;;;;;;;;;5008603;28;20054;-76
2023/06/02 02:55:34;;;;;;;15.02;4.03;;;;;;;;;;5008759;28;20053;-76
2023/06/02 02:58:01;;;;;;;15.13;4.72;;;;;;;;;;5002811;28;20121;-76
2023/06/02 03:00:27;;;;;;;12.80;4.28;;;;;;;;;;5007467;28;20144;-76
2023/06/02 03:02:56;;;;;;;12.43;3.83;;;;;;;;;;5009298;28;20125;-76
2023/06/02 03:05:22;;;;;;;14.98;3.95;;;;;;;;;;5006681;28;20429;-76
2023/06/02 03:07:49;;;;;;;12.00;3.63;;;;;;;;;;5007502;28;20046;-76
2023/06/02 03:10:15;;;;;;;7.78;3.45;;;;;;;;;;5006115;28;20502;-76
2023/06/02 03:12:41;;;;;;;9.40;3.60;;;;;;;;;;5010445;28;20557;-76
2023/06/02 03:15:08;;;;;;;15.65;4.15;;;;;;;;;;5002934;28;20129;-76
2023/06/02 03:17:34;;;;;;;16.27;4.30;;;;;;;;;;5008865;28;20058;-76
2023/06/02 03:20:00;;;;;;;10.20;4.22;;;;;;;;;;5006212;28;20061;-76
2023/06/02 03:22:28;;;;;;;16.45;4.07;;;;;;;;;;5009860;28;20092;-76
2023/06/02 03:24:54;;;;;;;13.30;3.53;;;;;;;;;;5005270;28;20042;-76
2023/06/02 03:27:20;;;;;;;11.02;3.45;;;;;;;;;;5004400;28;20052;-76
2023/06/02 03:29:46;;;;;;;16.08;4.13;;;;;;;;;;5000821;28;20437;-76
2023/06/02 03:32:12;;;;;;;15.13;4.30;;;;;;;;;;4999293;28;20042;-76
2023/06/02 03:34:39;;;;;;;15.25;4.80;;;;;;;;;;5002397;28;20048;-76
2023/06/02 03:37:08;;;;;;;8.55;3.53;;;;;;;;;;5004080;28;20041;-76
2023/06/02 03:39:34;;;;;;;14.70;3.72;;;;;;;;;;4997276;28;21111;-76
2023/06/02 03:42:00;;;;;;;12.88;4.03;;;;;;;;;;5004498;28;20045;-76
2023/06/02 03:44:26;;;;;;;14.55;4.00;;;;;;;;;;5007758;28;20465;-76
2023/06/02 03:46:52;;;;;;;14.27;4.05;;;;;;;;;;5009042;28;20128;-76
2023/06/02 03:49:18;;;;;;;11.10;3.38;;;;;;;;;;4995897;28;20081;-76
2023/06/02 03:51:46;;;;;;;13.82;4.30;;;;;;;;;;5011859;28;20072;-76
2023/06/02 03:54:12;;;;;;;11.82;3.60;;;;;;;;;;5011582;28;20045;-75
2023/06/02 03:56:38;;;;;;;12.18;3.72;;;;;;;;;;5025015;28;20064;-76
2023/06/02 03:59:05;;;;;;;14.93;3.80;;;;;;;;;;4993469;28;20153;-76
2023/06/02 04:01:32;;;;;;;10.50;3.67;;;;;;;;;;5004307;28;20042;-76
2023/06/02 04:03:58;;;;;;;9.32;3.83;;;;;;;;;;5010315;28;20071;-75
2023/06/02 04:06:25;;;;;;;11.52;3.70;;;;;;;;;;5010097;28;20060;-76
2023/06/02 04:08:52;;;;;;;12.70;4.07;;;;;;;;;;5011867;28;20102;-76
2023/06/02 04:11:22;;;;;;;14.68;4.38;;;;;;;;;;5005526;28;20054;-76
2023/06/02 04:13:48;;;;;;;9.68;3.00;;;;;;;;;;5005809;28;20458;-76
2023/06/02 04:16:14;;;;;;;13.02;3.72;;;;;;;;;;5019732;28;20127;-76
2023/06/02 04:18:40;;;;;;;8.68;3.35;;;;;;;;;;5003650;28;20100;-76
2023/06/02 04:21:06;;;;;;;10.63;3.55;;;;;;;;;;5007660;28;20088;-76
2023/06/02 04:23:32;;;;;;;12.55;4.22;;;;;;;;;;5000889;28;20058;-76
2023/06/02 04:25:58;;;;;;;13.13;3.55;;;;;;;;;;5025418;28;20062;-76
2023/06/02 04:28:24;;;;;;;8.55;3.38;;;;;;;;;;5002770;28;20053;-76
2023/06/02 04:30:53;;;;;;;18.85;4.40;;;;;;;;;;4999823;28;20050;-76
2023/06/02 04:33:19;;;;;;;11.65;3.25;;;;;;;;;;4999853;28;20096;-76
2023/06/02 04:35:45;;;;;;;11.88;3.63;;;;;;;;;;4996985;28;20437;-75
2023/06/02 04:38:12;;;;;;;12.70;3.92;;;;;;;;;;5001510;28;20057;-75
2023/06/02 04:40:39;;;;;;;12.73;3.67;;;;;;;;;;4998803;28;20490;-76
2023/06/02 04:43:05;;;;;;;12.80;3.58;;;;;;;;;;4997099;28;20050;-76
2023/06/02 04:45:31;;;;;;;11.68;3.67;;;;;;;;;;5001786;28;20128;-76
2023/06/02 04:47:58;;;;;;;17.20;4.25;;;;;;;;;;5002174;28;20107;-76
2023/06/02 04:50:25;;;;;;;13.77;3.53;;;;;;;;;;4998310;28;20054;-75
2023/06/02 04:52:51;;;;;;;12.80;4.32;;;;;;;;;;5002829;28;20133;-76
2023/06/02 04:55:17;;;;;;;12.88;4.38;;;;;;;;;;5002086;28;20060;-76
2023/06/02 04:57:43;;;;;;;8.27;3.60;;;;;;;;;;5001995;28;20110;-76
2023/06/02 05:00:10;;;;;;;13.65;4.22;;;;;;;;;;5001218;28;20501;-76
2023/06/02 05:02:36;;;;;;;16.88;4.00;;;;;;;;;;5008179;28;20055;-76
2023/06/02 05:05:03;;;;;;;12.40;4.32;;;;;;;;;;5006398;28;20050;-76
2023/06/02 05:07:29;;;;;;;11.52;3.58;;;;;;;;;;5007395;28;20556;-76
2023/06/02 05:09:55;;;;;;;14.77;4.32;;;;;;;;;;5007838;28;20046;-76
2023/06/02 05:12:22;;;;;;;13.32;4.03;;;;;;;;;;5021396;28;20406;-76
2023/06/02 05:14:48;;;;;;;12.68;4.20;;;;;;;;;;5005138;28;20046;-76
2023/06/02 05:17:21;;;;;;;11.90;4.78;;;;;;;;;;4997963;28;20057;-75
2023/06/02 05:19:48;;;;;;;17.52;4.65;;;;;;;;;;5006987;28;20128;-76
2023/06/02 05:22:14;;;;;;;16.05;3.78;;;;;;;;;;5006587;28;20045;-75
2023/06/02 05:24:40;;;;;;;13.73;4.50;;;;;;;;;;5003527;28;20095;-77
2023/06/02 05:27:07;;;;;;;14.10;4.93;;;;;;;;;;5002976;28;20652;-76
2023/06/02 05:29:33;;;;;;;10.02;3.78;;;;;;;;;;5001205;28;20069;-76
2023/06/02 05:31:59;;;;;;;13.85;3.88;;;;;;;;;;5000236;28;20383;-76
2023/06/02 05:34:25;;;;;;;16.15;4.85;;;;;;;;;;5005761;28;20522;-76
2023/06/02 05:36:51;;;;;;;20.48;5.35;;;;;;;;;;5008087;28;20045;-75
2023/06/02 05:39:17;;;;;;;15.82;5.13;;;;;;;;;;5006360;28;20041;-76
2023/06/02 05:41:43;;;;;;;15.38;4.03;;;;;;;;;;5000628;28;20400;-75
2023/06/02 05:44:09;;;;;;;13.07;3.65;;;;;;;;;;5008086;28;20049;-75
2023/06/02 05:46:35;;;;;;;18.15;4.40;;;;;;;;;;5009408;28;20053;-76
2023/06/02 05:49:01;;;;;;;19.17;5.63;;;;;;;;;;5011783;28;20229;-75
2023/06/02 05:51:27;;;;;;;11.95;4.30;;;;;;;;;;5010165;28;20496;-75
2023/06/02 05:53:53;;;;;;;10.90;4.00;;;;;;;;;;5012370;28;20060;-76
2023/06/02 05:56:20;;;;;;;14.10;4.55;;;;;;;;;;5008467;28;20030;-77
2023/06/02 05:58:46;;;;;;;15.23;4.43;;;;;;;;;;5000343;28;20104;-76
2023/06/02 06:01:13;;;;;;;13.10;4.53;;;;;;;;;;5011547;28;20034;-76
2023/06/02 06:03:39;;;;;;;18.40;4.70;;;;;;;;;;5012691;28;20450;-76
2023/06/02 06:06:05;;;;;;;17.08;4.18;;;;;;;;;;5009910;28;20437;-76
2023/06/02 06:08:31;;;;;;;16.25;4.38;;;;;;;;;;5009747;28;20129;-76
2023/06/02 06:10:57;;;;;;;14.88;5.10;;;;;;;;;;5007305;28;20064;-76
2023/06/02 06:13:23;;;;;;;13.30;4.60;;;;;;;;;;5012202;28;20046;-76
2023/06/02 06:15:49;;;;;;;16.88;4.78;;;;;;;;;;5004992;28;20065;-75
2023/06/02 06:18:15;;;;;;;14.32;4.70;;;;;;;;;;5007251;28;20522;-75
2023/06/02 06:20:42;;;;;;;15.32;4.78;;;;;;;;;;5007949;28;20490;-76
2023/06/02 06:23:08;;;;;;;14.95;4.55;;;;;;;;;;4996410;28;20054;-76
2023/06/02 06:25:34;;;;;;;13.73;5.07;;;;;;;;;;4995748;28;20050;-76
2023/06/02 06:28:00;;;;;;;13.77;4.60;;;;;;;;;;5025362;28;20092;-76
2023/06/02 06:30:26;;;;;;;16.27;4.38;;;;;;;;;;5010049;28;20089;-76
2023/06/02 06:32:52;;;;;;;16.23;4.97;;;;;;;;;;5011990;28;20121;-77
2023/06/02 06:35:18;;;;;;;14.55;4.40;;;;;;;;;;5024410;28;20045;-76
2023/06/02 06:37:44;;;;;;;22.27;5.78;;;;;;;;;;5001210;28;20409;-77
2023/06/02 06:40:10;;;;;;;15.10;4.55;;;;;;;;;;5005101;28;20042;-76
2023/06/02 06:42:36;;;;;;;15.88;4.78;;;;;;;;;;5009300;28;20425;-76
2023/06/02 06:45:02;;;;;;;17.15;5.00;;;;;;;;;;5008071;28;20046;-77
2023/06/02 06:47:28;;;;;;;15.73;4.90;;;;;;;;;;5008224;28;20057;-77
2023/06/02 06:49:55;;;;;;;11.13;4.68;;;;;;;;;;5008257;28;20482;-77
2023/06/02 06:52:21;;;;;;;12.77;4.13;;;;;;;;;;5001470;28;20050;-76
2023/06/02 06:54:47;;;;;;;17.45;4.65;;;;;;;;;;5009039;28;20056;-76
2023/06/02 06:57:13;;;;;;;17.23;5.22;;;;;;;;;;4999206;28;20059;-76
2023/06/02 06:59:42;;;;;;;16.25;5.70;;;;;;;;;;4996006;28;20092;-76
2023/06/02 07:02:08;;;;;;;15.07;4.72;;;;;;;;;;5005676;28;20471;-76
2023/06/02 07:04:35;;;;;;;12.55;4.68;;;;;;;;;;5000612;28;20041;-76
2023/06/02 07:07:01;;;;;;;22.05;5.68;;;;;;;;;;5010746;28;20057;-76
2023/06/02 07:09:27;;;;;;;17.65;5.10;;;;;;;;;;5012835;28;20057;-77
2023/06/02 07:11:53;;;;;;;16.75;4.90;;;;;;;;;;5009060;28;20046;-76
2023/06/02 07:14:19;;;;;;;13.63;4.70;;;;;;;;;;5008922;28;20410;-77
2023/06/02 07:16:46;;;;;;;20.88;4.93;;;;;;;;;;5009364;28;20053;-76
2023/06/02 07:19:12;;;;;;;18.00;4.80;;;;;;;;;;5011453;28;20042;-76
2023/06/02 07:21:38;;;;;;;18.95;5.40;;;;;;;;;;5008783;28;20041;-76
2023/06/02 07:24:04;;;;;;;15.63;5.15;;;;;;;;;;5004009;28;20403;-76
2023/06/02 07:26:30;;;;;;;16.85;6.13;;;;;;;;;;5008540;28;20537;-76
2023/06/02 07:28:56;;;;;;;15.15;5.20;;;;;;;;;;4998040;28;20080;-76
2023/06/02 07:31:22;;;;;;;15.63;4.75;;;;;;;;;;5003325;28;20053;-77
2023/06/02 07:33:48;;;;;;;14.32;5.38;;;;;;;;;;5001801;28;20132;-76
2023/06/02 07:36:14;;;;;;;13.18;5.22;;;;;;;;;;5011089;28;20046;-76
2023/06/02 07:38:40;;;;;;;24.10;5.53;;;;;;;;;;5009016;28;20358;-76
2023/06/02 07:41:07;;;;;;;18.48;5.20;;;;;;;;;;4997308;28;20390;-76
2023/06/02 07:43:33;;;;;;;19.60;4.95;;;;;;;;;;5007732;28;20049;-76
2023/06/02 07:45:59;;;;;;;18.55;4.85;;;;;;;;;;5011037;28;20045;-77
2023/06/02 07:48:25;;;;;;;19.38;4.95;;;;;;;;;;5030381;28;20037;-77
2023/06/02 07:50:51;;;;;;;18.52;5.20;;;;;;;;;;5001464;28;20513;-76
2023/06/02 07:53:17;;;;;;;22.67;5.32;;;;;;;;;;5009809;28;20038;-77
2023/06/02 07:55:44;;;;;;;15.45;4.47;;;;;;;;;;5006737;28;20045;-76
2023/06/02 07:58:10;;;;;;;24.70;5.65;;;;;;;;;;5007634;28;20497;-77
2023/06/02 08:00:38;;;;;;;15.82;4.93;;;;;;;;;;4997315;28;20401;-77
2023/06/02 08:03:04;;;;;;;16.88;4.60;;;;;;;;;;5008439;28;20117;-78
2023/06/02 08:05:30;;;;;;;15.85;4.78;;;;;;;;;;5014778;28;20049;-77
2023/06/02 08:07:56;;;;;;;16.90;5.85;;;;;;;;;;5007839;28;20092;-76
2023/06/02 08:10:22;;;;;;;21.35;5.45;;;;;;;;;;5010928;28;20049;-77
2023/06/02 08:12:48;;;;;;;18.50;5.03;;;;;;;;;;5010526;28;20045;-77
2023/06/02 08:15:14;;;;;;;15.10;4.63;;;;;;;;;;5007391;28;20355;-77
2023/06/02 08:17:40;;;;;;;19.90;4.82;;;;;;;;;;5010216;28;20096;-77
2023/06/02 08:20:07;;;;;;;10.77;4.65;;;;;;;;;;5001793;28;20046;-76
2023/06/02 08:22:37;;;;;;;23.00;5.65;;;;;;;;;;5004517;28;20080;-77
2023/06/02 08:25:03;;;;;;;19.58;4.78;;;;;;;;;;5007404;28;20132;-76
2023/06/02 08:27:30;;;;;;;18.58;5.43;;;;;;;;;;5009250;28;20038;-76
2023/06/02 08:29:59;;;;;;;19.05;5.22;;;;;;;;;;5010791;28;20042;-77
2023/06/02 08:32:26;;;;;;;20.25;4.90;;;;;;;;;;5009371;28;20084;-77
2023/06/02 08:34:55;;;;;;;16.00;4.95;;;;;;;;;;4996427;28;20494;-78
2023/06/02 08:37:21;;;;;;;13.23;4.30;;;;;;;;;;5006483;28;20077;-76
2023/06/02 08:39:48;;;;;;;15.73;4.85;;;;;;;;;;5011825;28;20053;-76
2023/06/02 08:42:15;;;;;;;15.70;4.70;;;;;;;;;;5002070;28;20042;-76
2023/06/02 08:44:42;;;;;;;20.67;4.97;;;;;;;;;;5007912;28;20042;-77
2023/06/02 08:47:11;;;;;;;19.35;4.57;;;;;;;;;;5007392;28;20030;-78
2023/06/02 08:49:37;;;;;;;16.85;4.85;;;;;;;;;;5007666;28;20049;-76
2023/06/02 08:52:06;;;;;;;18.42;4.68;;;;;;;;;;4992336;28;20039;-76
2023/06/02 08:54:33;;;;;;;18.58;4.53;;;;;;;;;;5008475;28;20060;-76
2023/06/02 08:57:04;;;;;;;17.52;4.82;;;;;;;;;;5008304;28;20525;-76
2023/06/02 08:59:30;;;;;;;15.30;4.70;;;;;;;;;;5011616;28;20065;-76
2023/06/02 09:01:56;;;;;;;16.10;5.25;;;;;;;;;;5014679;28;20053;-78
2023/06/02 09:04:22;;;;;;;14.38;4.78;;;;;;;;;;5011843;28;20081;-76
2023/06/02 09:06:49;;;;;;;18.92;4.90;;;;;;;;;;5006808;28;20501;-76
2023/06/02 09:09:15;;;;;;;18.10;5.28;;;;;;;;;;5009700;28;20173;-76
2023/06/02 09:11:56;;;;;;;20.65;6.03;;;;;;;;;;5013025;28;20103;-77
2023/06/02 09:14:23;;;;;;;17.67;5.78;;;;;;;;;;5010140;28;20046;-77
2023/06/02 09:16:49;;;;;;;22.55;8.60;;;;;;;;;;5012474;28;20049;-77
2023/06/02 09:19:15;;;;;;;16.23;5.03;;;;;;;;;;5012652;28;20405;-76
2023/06/02 09:21:41;;;;;;;18.15;5.32;;;;;;;;;;5011428;28;20046;-77
2023/06/02 09:24:07;;;;;;;18.50;4.72;;;;;;;;;;5005299;28;20097;-77
2023/06/02 09:26:34;;;;;;;17.77;5.25;;;;;;;;;;5012092;28;20401;-77
2023/06/02 09:29:04;;;;;;;17.70;5.05;;;;;;;;;;5010632;28;20044;-77
2023/06/02 09:31:44;;;;;;;19.95;5.00;;;;;;;;;;5009490;28;20064;-77
2023/06/02 09:34:10;;;;;;;15.88;4.45;;;;;;;;;;5004071;28;20046;-77
2023/06/02 09:36:36;;;;;;;17.73;4.60;;;;;;;;;;5011327;28;20399;-77
2023/06/02 09:39:03;;;;;;;14.18;4.90;;;;;;;;;;5008211;28;20042;-77
2023/06/02 09:41:30;;;;;;;15.27;4.60;;;;;;;;;;5011831;28;20054;-76
2023/06/02 09:43:56;;;;;;;13.00;4.47;;;;;;;;;;5006461;28;20082;-76
2023/06/02 09:46:23;;;;;;;16.20;4.93;;;;;;;;;;5007434;28;20038;-76
2023/06/02 09:48:56;;;;;;;17.08;5.00;;;;;;;;;;5010795;28;20481;-77
2023/06/02 09:51:25;;;;;;;17.98;4.68;;;;;;;;;;5009869;28;20057;-76
2023/06/02 09:53:55;;;;;;;15.88;4.32;;;;;;;;;;5010488;28;20038;-78
2023/06/02 09:56:22;;;;;;;22.50;4.70;;;;;;;;;;5012640;28;20147;-78
2023/06/02 09:58:48;;;;;;;20.20;5.22;;;;;;;;;;5008630;28;20057;-76
2023/06/02 10:01:15;;;;;;;17.23;4.80;;;;;;;;;;5001736;28;20520;-76
2023/06/02 10:03:44;;;;;;;21.40;5.00;;;;;;;;;;5010725;28;20141;-76
2023/06/02 10:06:35;;;;;;;17.27;5.57;;;;;;;;;;5007353;28;20132;-76
2023/06/02 10:09:04;;;;;;;18.88;5.05;;;;;;;;;;4988631;28;20121;-76
2023/06/02 10:11:48;;;;;;;17.70;4.72;;;;;;;;;;5010276;28;20045;-76
2023/06/02 10:14:21;;;;;;;22.00;5.10;;;;;;;;;;5009167;28;20371;-76
2023/06/02 10:17:02;;;;;;;15.15;4.85;;;;;;;;;;5012566;28;20056;-76
2023/06/02 10:19:32;;;;;;;13.55;4.90;;;;;;;;;;5005775;28;20093;-76
2023/06/02 10:22:17;;;;;;;16.15;5.10;;;;;;;;;;5008085;28;20394;-77
2023/06/02 10:25:02;;;;;;;14.85;4.70;;;;;;;;;;5012197;28;20037;-76
2023/06/02 10:27:31;;;;;;;13.27;4.43;;;;;;;;;;5000932;28;20094;-76
2023/06/02 10:29:57;;;;;;;14.00;4.82;;;;;;;;;;5007854;28;20048;-76
2023/06/02 10:32:24;;;;;;;14.48;4.25;;;;;;;;;;5019061;28;20038;-77
2023/06/02 10:34:57;;;;;;;12.82;4.63;;;;;;;;;;5008932;28;20538;-76
2023/06/02 10:37:23;;;;;;;10.90;4.10;;;;;;;;;;5025290;28;20072;-77
2023/06/02 10:39:52;;;;;;;13.88;4.57;;;;;;;;;;5000880;28;20566;-76
2023/06/02 10:42:19;;;;;;;15.95;3.90;;;;;;;;;;5007863;28;20038;-76
2023/06/02 10:44:47;;;;;;;17.98;4.32;;;;;;;;;;5005208;28;20077;-76
2023/06/02 10:47:19;;;;;;;10.13;3.50;;;;;;;;;;5006727;28;20104;-76
2023/06/02 10:49:59;;;;;;;10.82;4.10;;;;;;;;;;5008186;28;20498;-76
2023/06/02 10:52:26;;;;;;;10.52;3.72;;;;;;;;;;5007754;28;20050;-76
2023/06/02 10:55:07;;;;;;;16.77;4.18;;;;;;;;;;5012239;28;20460;-76
2023/06/02 10:57:49;;;;;;;12.77;4.05;;;;;;;;;;5001819;28;20061;-76
2023/06/02 11:00:35;;;;;;;10.20;3.40;;;;;;;;;;4998245;28;20061;-76
2023/06/02 11:03:22;;;;;;;11.38;3.45;;;;;;;;;;4999343;28;20439;-76
2023/06/02 11:05:54;;;;;;;12.90;3.85;;;;;;;;;;5011171;28;20767;-75
2023/06/02 11:08:21;;;;;;;16.73;4.13;;;;;;;;;;5003504;28;20112;-77
2023/06/02 11:10:51;;;;;;;12.88;3.67;;;;;;;;;;5001974;28;20445;-76
2023/06/02 11:13:17;;;;;;;12.55;3.78;;;;;;;;;;5007240;28;20607;-77
2023/06/02 11:15:52;;;;;;;14.70;3.72;;;;;;;;;;5006891;28;20386;-77
2023/06/02 11:18:28;;;;;;;10.25;3.22;;;;;;;;;;5004162;28;20061;-78
2023/06/02 11:20:55;;;;;;;12.35;3.40;;;;;;;;;;5006180;28;20089;-78
2023/06/02 11:23:21;;;;;;;8.18;3.35;;;;;;;;;;5005429;28;20052;-77
2023/06/02 11:25:48;;;;;;;8.20;3.20;;;;;;;;;;5008013;28;20077;-76
2023/06/02 11:28:20;;;;;;;11.48;3.30;;;;;;;;;;5007634;28;20037;-76
2023/06/02 11:30:46;;;;;;;8.75;3.20;;;;;;;;;;5025169;28;20057;-76
2023/06/02 11:33:12;;;;;;;7.13;2.60;;;;;;;;;;5007330;28;20070;-77
2023/06/02 11:35:40;;;;;;;7.22;2.88;;;;;;;;;;5002682;28;20077;-77
2023/06/02 11:38:08;;;;;;;8.43;2.92;;;;;;;;;;5007559;28;20034;-77
2023/06/02 11:40:35;;;;;;;7.75;3.08;;;;;;;;;;4998897;28;20058;-77
2023/06/02 11:43:02;;;;;;;7.57;3.00;;;;;;;;;;4995653;28;20481;-77
2023/06/02 11:45:28;;;;;;;9.27;2.88;;;;;;;;;;5007711;28;20052;-77
2023/06/02 11:48:01;;;;;;;7.32;2.92;;;;;;;;;;5009757;28;20496;-77
2023/06/02 11:50:28;;;;;;;7.18;3.00;;;;;;;;;;5018723;28;20064;-77
2023/06/02 11:52:55;;;;;;;7.53;2.80;;;;;;;;;;5004193;28;20053;-77
2023/06/02 11:55:21;;;;;;;7.53;3.22;;;;;;;;;;5005351;28;20045;-77
2023/06/02 11:57:47;;;;;;;6.43;2.40;;;;;;;;;;4991976;28;20062;-77
2023/06/02 12:00:19;;;;;;;10.45;3.38;;;;;;;;;;5010371;28;20141;-78
2023/06/02 12:02:51;;;;;;;8.05;2.95;;;;;;;;;;4998174;28;20054;-77
2023/06/02 12:05:49;;;;;;;9.07;2.63;;;;;;;;;;5011262;28;20058;-78
2023/06/02 12:08:20;;;;;;;5.22;2.60;;;;;;;;;;4964370;28;20082;-76
2023/06/02 12:10:46;;;;;;;5.97;2.50;;;;;;;;;;5000073;28;20474;-77
2023/06/02 12:13:28;;;;;;;6.93;2.38;;;;;;;;;;5008694;28;20104;-77
2023/06/02 12:15:54;;;;;;;8.20;3.30;;;;;;;;;;5009776;28;20523;-77
2023/06/02 12:18:27;;;;;;;5.38;2.35;;;;;;;;;;5008824;28;20497;-77
2023/06/02 12:20:53;;;;;;;4.70;2.60;;;;;;;;;;4998181;28;20100;-76
2023/06/02 12:23:19;;;;;;;9.10;2.45;;;;;;;;;;5008984;28;20096;-77
2023/06/02 12:25:56;;;;;;;5.80;2.58;;;;;;;;;;5002098;28;20129;-77
2023/06/02 12:28:22;;;;;;;5.00;2.53;;;;;;;;;;5008514;28;20064;-77
2023/06/02 12:30:49;;;;;;;5.65;2.15;;;;;;;;;;5008908;28;20438;-76
2023/06/02 12:33:15;;;;;;;5.63;2.28;;;;;;;;;;5011174;28;20069;-76
2023/06/02 12:35:41;;;;;;;5.55;2.25;;;;;;;;;;5012921;28;20042;-77
2023/06/02 12:38:09;;;;;;;5.78;2.50;;;;;;;;;;4996441;28;20447;-77
2023/06/02 12:40:35;;;;;;;6.55;2.50;;;;;;;;;;5006875;28;20454;-77
2023/06/02 12:43:01;;;;;;;6.35;2.72;;;;;;;;;;5010667;28;20049;-77
2023/06/02 12:45:28;;;;;;;7.88;2.53;;;;;;;;;;5012788;28;20133;-77
2023/06/02 12:47:54;;;;;;;3.20;2.17;;;;;;;;;;5009821;28;20053;-77
2023/06/02 12:50:23;;;;;;;7.82;2.85;;;;;;;;;;5009965;28;20414;-77
2023/06/02 12:52:50;;;;;;;5.70;2.50;;;;;;;;;;5009739;28;20081;-76
2023/06/02 12:55:16;;;;;;;9.40;2.80;;;;;;;;;;5005556;28;20046;-77
2023/06/02 12:57:44;;;;;;;6.72;2.88;;;;;;;;;;5009065;28;20626;-76
2023/06/02 13:00:10;;;;;;;4.35;2.40;;;;;;;;;;5007064;28;20045;-76
2023/06/02 13:02:36;;;;;;;6.47;2.65;;;;;;;;;;4999738;28;20494;-77
2023/06/02 13:05:03;;;;;;;6.15;2.75;;;;;;;;;;5006680;28;20050;-77
2023/06/02 13:07:30;;;;;;;6.50;3.10;;;;;;;;;;5012015;28;20041;-76
2023/06/02 13:09:56;;;;;;;5.35;2.47;;;;;;;;;;5012153;28;20053;-77
2023/06/02 13:12:22;;;;;;;8.13;3.53;;;;;;;;;;5013818;28;20125;-77
2023/06/02 13:14:48;;;;;;;5.85;2.83;;;;;;;;;;5006529;28;20133;-77
2023/06/02 13:17:14;;;;;;;6.75;3.53;;;;;;;;;;5005063;28;20129;-77
2023/06/02 13:19:42;;;;;;;7.38;3.10;;;;;;;;;;5001960;28;20050;-77
2023/06/02 13:22:08;;;;;;;11.07;2.78;;;;;;;;;;5007650;28;20037;-77
2023/06/02 13:24:34;;;;;;;6.63;2.85;;;;;;;;;;5009127;28;20132;-77
2023/06/02 13:27:00;;;;;;;5.35;3.05;;;;;;;;;;5004493;28;20092;-77
2023/06/02 13:29:26;;;;;;;5.13;3.28;;;;;;;;;;5012622;28;20074;-77
2023/06/02 13:31:52;;;;;;;5.97;3.17;;;;;;;;;;5011630;28;20080;-77
2023/06/02 13:34:18;;;;;;;9.82;3.30;;;;;;;;;;5005415;28;20465;-78
2023/06/02 13:36:44;;;;;;;9.30;3.42;;;;;;;;;;5007014;28;20409;-77
2023/06/02 13:39:11;;;;;;;8.13;3.45;;;;;;;;;;5006974;28;20498;-76
2023/06/02 13:41:37;;;;;;;7.00;3.42;;;;;;;;;;5002980;28;20069;-77
2023/06/02 13:44:03;;;;;;;7.78;3.45;;;;;;;;;;5008941;28;20030;-77
2023/06/02 13:46:29;;;;;;;6.10;3.08;;;;;;;;;;5005639;28;20397;-77
2023/06/02 13:48:55;;;;;;;8.98;3.33;;;;;;;;;;5007709;28;20413;-77
2023/06/02 13:51:21;;;;;;;11.32;4.85;;;;;;;;;;5012226;28;20119;-77
2023/06/02 13:53:47;;;;;;;4.28;2.65;;;;;;;;;;5005924;28;20518;-77
2023/06/02 13:56:13;;;;;;;7.97;2.92;;;;;;;;;;5011488;28;20045;-77
2023/06/02 13:58:39;;;;;;;10.75;2.97;;;;;;;;;;5009205;28;20061;-77
2023/06/02 14:01:05;;;;;;;5.88;3.10;;;;;;;;;;5000893;28;20038;-78
2023/06/02 14:03:31;;;;;;;8.07;3.13;;;;;;;;;;5011203;28;20050;-78
2023/06/02 14:05:57;;;;;;;6.30;3.05;;;;;;;;;;5007873;28;20076;-77
2023/06/02 14:08:23;;;;;;;4.70;2.97;;;;;;;;;;4996360;28;20038;-76
2023/06/02 14:10:49;;;;;;;4.97;2.92;;;;;;;;;;5003775;28;20145;-71
2023/06/02 14:13:15;;;;;;;7.88;3.08;;;;;;;;;;4998350;28;20042;-76
2023/06/02 14:15:41;;;;;;;5.35;2.95;;;;;;;;;;5002117;28;20056;-74
2023/06/02 14:18:07;;;;;;;8.13;3.28;;;;;;;;;;5004922;28;20038;-74
2023/06/02 14:20:35;;;;;;;7.55;3.00;;;;;;;;;;5005220;28;20124;-75
2023/06/02 14:23:01;;;;;;;6.53;2.80;;;;;;;;;;5007546;28;20632;-75
2023/06/02 14:25:27;;;;;;;8.05;3.38;;;;;;;;;;4991299;28;20041;-75
2023/06/02 14:27:53;;;;;;;7.35;3.35;;;;;;;;;;5006694;28;20078;-75
2023/06/02 14:30:19;;;;;;;7.25;2.90;;;;;;;;;;5001592;28;20052;-74
2023/06/02 14:32:45;;;;;;;5.93;3.03;;;;;;;;;;5002852;28;20056;-76
2023/06/02 14:35:11;;;;;;;5.03;2.70;;;;;;;;;;5002652;28;20474;-76